<?xml version="1.0" encoding="utf-8"?>
<gpx xmlns:xsi="http://www.w3.org/2001/XMLSchema-instance" xmlns:xsd="http://www.w3.org/2001/XMLSchema" version="1.1" creator="Shapelink.com" xmlns="http://www.topografix.com/GPX/1/1" xmlns:gpxtpx="http://www.garmin.com/xmlschemas/TrackPointExtension/v1">
  <metadata>
    <name>Cykling 8.59 km, 2019-04-22</name>
    <desc></desc>
    <author><name>Marian Moron</name></author> 
    <time>2019-04-22T14:57:03Z</time>
  </metadata>
  <trk>
    <name>Cykling 8.59 km, 2019-04-22</name>
    <trkseg>
      <trkpt lat="52.001581269035" lon="4.130095645801">
        <ele>0</ele>
        <time>2019-04-22T14:57:03Z</time>
      </trkpt>
      <trkpt lat="52.001541287372" lon="4.130208549994">
        <ele>0</ele>
        <time>2019-04-22T14:57:10Z</time>
      </trkpt>
      <trkpt lat="52.001128394978" lon="4.131363994909">
        <ele>3.4</ele>
        <time>2019-04-22T14:58:40Z</time>
      </trkpt>
      <trkpt lat="52.001109116608" lon="4.1313882186">
        <ele>3.6</ele>
        <time>2019-04-22T14:58:44Z</time>
      </trkpt>
      <trkpt lat="52.000800159774" lon="4.132131190216">
        <ele>2.8</ele>
        <time>2019-04-22T14:59:10Z</time>
      </trkpt>
      <trkpt lat="52.000681974984" lon="4.132523714593">
        <ele>2</ele>
        <time>2019-04-22T14:59:22Z</time>
      </trkpt>
      <trkpt lat="52.000578961433" lon="4.132436291376">
        <ele>2.4</ele>
        <time>2019-04-22T14:59:45Z</time>
      </trkpt>
      <trkpt lat="52.000557839045" lon="4.132404356337">
        <ele>2.4</ele>
        <time>2019-04-22T14:59:47Z</time>
      </trkpt>
      <trkpt lat="52.000507212369" lon="4.132341575906">
        <ele>2.2</ele>
        <time>2019-04-22T14:59:51Z</time>
      </trkpt>
      <trkpt lat="52.000049979724" lon="4.13184838491">
        <ele>1.6</ele>
        <time>2019-04-22T15:00:13Z</time>
      </trkpt>
      <trkpt lat="51.999583107894" lon="4.131354774819">
        <ele>0.6</ele>
        <time>2019-04-22T15:00:30Z</time>
      </trkpt>
      <trkpt lat="51.999152864967" lon="4.130766952172">
        <ele>0</ele>
        <time>2019-04-22T15:00:46Z</time>
      </trkpt>
      <trkpt lat="51.99868574168" lon="4.130281053429">
        <ele>0</ele>
        <time>2019-04-22T15:01:02Z</time>
      </trkpt>
      <trkpt lat="51.99824066279" lon="4.129738409223">
        <ele>0</ele>
        <time>2019-04-22T15:01:18Z</time>
      </trkpt>
      <trkpt lat="51.997949056489" lon="4.129408832915">
        <ele>0</ele>
        <time>2019-04-22T15:01:36Z</time>
      </trkpt>
      <trkpt lat="51.99794981086" lon="4.129410593114">
        <ele>0</ele>
        <time>2019-04-22T15:02:16Z</time>
      </trkpt>
      <trkpt lat="51.997914187785" lon="4.1293765626">
        <ele>0</ele>
        <time>2019-04-22T15:02:21Z</time>
      </trkpt>
      <trkpt lat="51.997436587123" lon="4.128919413774">
        <ele>0</ele>
        <time>2019-04-22T15:02:41Z</time>
      </trkpt>
      <trkpt lat="51.996968709465" lon="4.128471485038">
        <ele>0</ele>
        <time>2019-04-22T15:02:57Z</time>
      </trkpt>
      <trkpt lat="51.99656009184" lon="4.127896821974">
        <ele>0</ele>
        <time>2019-04-22T15:03:12Z</time>
      </trkpt>
      <trkpt lat="51.996157844459" lon="4.127314112286">
        <ele>0</ele>
        <time>2019-04-22T15:03:28Z</time>
      </trkpt>
      <trkpt lat="51.995772612335" lon="4.126626209753">
        <ele>0</ele>
        <time>2019-04-22T15:03:44Z</time>
      </trkpt>
      <trkpt lat="51.995402299993" lon="4.125963285282">
        <ele>0</ele>
        <time>2019-04-22T15:04:00Z</time>
      </trkpt>
      <trkpt lat="51.995007344865" lon="4.125345287795">
        <ele>0</ele>
        <time>2019-04-22T15:04:16Z</time>
      </trkpt>
      <trkpt lat="51.994675253987" lon="4.124638945082">
        <ele>0</ele>
        <time>2019-04-22T15:04:33Z</time>
      </trkpt>
      <trkpt lat="51.994439052045" lon="4.123951964558">
        <ele>0</ele>
        <time>2019-04-22T15:05:00Z</time>
      </trkpt>
      <trkpt lat="51.994031104972" lon="4.123335475813">
        <ele>0</ele>
        <time>2019-04-22T15:05:18Z</time>
      </trkpt>
      <trkpt lat="51.993668420159" lon="4.122676490835">
        <ele>0</ele>
        <time>2019-04-22T15:05:37Z</time>
      </trkpt>
      <trkpt lat="51.993300538568" lon="4.121991941062">
        <ele>0</ele>
        <time>2019-04-22T15:05:53Z</time>
      </trkpt>
      <trkpt lat="51.992929555674" lon="4.121347875866">
        <ele>0</ele>
        <time>2019-04-22T15:06:08Z</time>
      </trkpt>
      <trkpt lat="51.992725959323" lon="4.12104243943">
        <ele>0</ele>
        <time>2019-04-22T15:06:15Z</time>
      </trkpt>
      <trkpt lat="51.992560584436" lon="4.120853511404">
        <ele>0</ele>
        <time>2019-04-22T15:06:20Z</time>
      </trkpt>
      <trkpt lat="51.992248693937" lon="4.120155215315">
        <ele>0</ele>
        <time>2019-04-22T15:06:37Z</time>
      </trkpt>
      <trkpt lat="51.991958261102" lon="4.119403107428">
        <ele>0</ele>
        <time>2019-04-22T15:06:56Z</time>
      </trkpt>
      <trkpt lat="51.991619129428" lon="4.118691400299">
        <ele>0</ele>
        <time>2019-04-22T15:07:13Z</time>
      </trkpt>
      <trkpt lat="51.991298437934" lon="4.118047335103">
        <ele>0</ele>
        <time>2019-04-22T15:07:33Z</time>
      </trkpt>
      <trkpt lat="51.991183270628" lon="4.117961085352">
        <ele>0</ele>
        <time>2019-04-22T15:07:46Z</time>
      </trkpt>
      <trkpt lat="51.990744142887" lon="4.117455908239">
        <ele>0</ele>
        <time>2019-04-22T15:08:06Z</time>
      </trkpt>
      <trkpt lat="51.990433006759" lon="4.116736238305">
        <ele>0</ele>
        <time>2019-04-22T15:08:21Z</time>
      </trkpt>
      <trkpt lat="51.990174844239" lon="4.115928390783">
        <ele>0</ele>
        <time>2019-04-22T15:08:45Z</time>
      </trkpt>
      <trkpt lat="51.989899247367" lon="4.115169493557">
        <ele>0</ele>
        <time>2019-04-22T15:09:04Z</time>
      </trkpt>
      <trkpt lat="51.989572856181" lon="4.114435909669">
        <ele>0</ele>
        <time>2019-04-22T15:09:21Z</time>
      </trkpt>
      <trkpt lat="51.98923682581" lon="4.113731578612">
        <ele>0</ele>
        <time>2019-04-22T15:09:39Z</time>
      </trkpt>
      <trkpt lat="51.988922001646" lon="4.112981063286">
        <ele>0</ele>
        <time>2019-04-22T15:09:56Z</time>
      </trkpt>
      <trkpt lat="51.9886174034" lon="4.1122607228">
        <ele>0</ele>
        <time>2019-04-22T15:10:16Z</time>
      </trkpt>
      <trkpt lat="51.988299897028" lon="4.111540214676">
        <ele>0</ele>
        <time>2019-04-22T15:10:36Z</time>
      </trkpt>
      <trkpt lat="51.987882897503" lon="4.110919954076">
        <ele>0</ele>
        <time>2019-04-22T15:10:55Z</time>
      </trkpt>
      <trkpt lat="51.987591542659" lon="4.110569758294">
        <ele>0</ele>
        <time>2019-04-22T15:12:05Z</time>
      </trkpt>
      <trkpt lat="51.987595314514" lon="4.11058601918">
        <ele>0</ele>
        <time>2019-04-22T15:12:06Z</time>
      </trkpt>
      <trkpt lat="51.987774351898" lon="4.110829513375">
        <ele>0</ele>
        <time>2019-04-22T15:12:18Z</time>
      </trkpt>
      <trkpt lat="51.98820333754" lon="4.111383892241">
        <ele>0</ele>
        <time>2019-04-22T15:12:45Z</time>
      </trkpt>
      <trkpt lat="51.988526795061" lon="4.112112446989">
        <ele>0</ele>
        <time>2019-04-22T15:13:07Z</time>
      </trkpt>
      <trkpt lat="51.988867267839" lon="4.112836894606">
        <ele>0</ele>
        <time>2019-04-22T15:13:25Z</time>
      </trkpt>
      <trkpt lat="51.989177062863" lon="4.113563689155">
        <ele>0</ele>
        <time>2019-04-22T15:13:45Z</time>
      </trkpt>
      <trkpt lat="51.989269934315" lon="4.11387256217">
        <ele>0</ele>
        <time>2019-04-22T15:13:57Z</time>
      </trkpt>
      <trkpt lat="51.989622141753" lon="4.114578988702">
        <ele>0</ele>
        <time>2019-04-22T15:14:14Z</time>
      </trkpt>
      <trkpt lat="51.989949035853" lon="4.115279296447">
        <ele>0</ele>
        <time>2019-04-22T15:14:31Z</time>
      </trkpt>
      <trkpt lat="51.990231338245" lon="4.116062249726">
        <ele>0</ele>
        <time>2019-04-22T15:14:50Z</time>
      </trkpt>
      <trkpt lat="51.990494278448" lon="4.116850315964">
        <ele>0</ele>
        <time>2019-04-22T15:15:04Z</time>
      </trkpt>
      <trkpt lat="51.990832320475" lon="4.117544840198">
        <ele>0</ele>
        <time>2019-04-22T15:15:21Z</time>
      </trkpt>
      <trkpt lat="51.991142199318" lon="4.117859412905">
        <ele>0</ele>
        <time>2019-04-22T15:15:39Z</time>
      </trkpt>
      <trkpt lat="51.991163908439" lon="4.117956559126">
        <ele>0.6</ele>
        <time>2019-04-22T15:15:43Z</time>
      </trkpt>
      <trkpt lat="51.991187461578" lon="4.118013556046">
        <ele>0.6</ele>
        <time>2019-04-22T15:15:46Z</time>
      </trkpt>
      <trkpt lat="51.990930723981" lon="4.118779158792">
        <ele>0</ele>
        <time>2019-04-22T15:16:12Z</time>
      </trkpt>
      <trkpt lat="51.990623946441" lon="4.119503606409">
        <ele>0</ele>
        <time>2019-04-22T15:16:37Z</time>
      </trkpt>
      <trkpt lat="51.9903608386" lon="4.120268035689">
        <ele>0</ele>
        <time>2019-04-22T15:17:00Z</time>
      </trkpt>
      <trkpt lat="51.9900590902" lon="4.121017712825">
        <ele>0</ele>
        <time>2019-04-22T15:17:26Z</time>
      </trkpt>
      <trkpt lat="51.989857756962" lon="4.121470251606">
        <ele>0</ele>
        <time>2019-04-22T15:17:46Z</time>
      </trkpt>
      <trkpt lat="51.989912826045" lon="4.121465976837">
        <ele>4</ele>
        <time>2019-04-22T15:18:18Z</time>
      </trkpt>
      <trkpt lat="51.989950293138" lon="4.12142884502">
        <ele>4.6</ele>
        <time>2019-04-22T15:18:22Z</time>
      </trkpt>
      <trkpt lat="51.990222872526" lon="4.120652848718">
        <ele>3</ele>
        <time>2019-04-22T15:18:43Z</time>
      </trkpt>
      <trkpt lat="51.990512970085" lon="4.119895627872">
        <ele>0.6</ele>
        <time>2019-04-22T15:18:56Z</time>
      </trkpt>
      <trkpt lat="51.990534008654" lon="4.119837625124">
        <ele>0.8</ele>
        <time>2019-04-22T15:18:57Z</time>
      </trkpt>
      <trkpt lat="51.990837014339" lon="4.119055258578">
        <ele>0</ele>
        <time>2019-04-22T15:19:11Z</time>
      </trkpt>
      <trkpt lat="51.991126441346" lon="4.118278004991">
        <ele>0.2</ele>
        <time>2019-04-22T15:19:26Z</time>
      </trkpt>
      <trkpt lat="51.991241441014" lon="4.117981537188">
        <ele>0.8</ele>
        <time>2019-04-22T15:19:33Z</time>
      </trkpt>
      <trkpt lat="51.991601611257" lon="4.118641444175">
        <ele>0</ele>
        <time>2019-04-22T15:19:48Z</time>
      </trkpt>
      <trkpt lat="51.991953902514" lon="4.119374189873">
        <ele>0</ele>
        <time>2019-04-22T15:20:06Z</time>
      </trkpt>
      <trkpt lat="51.99224508972" lon="4.120118418774">
        <ele>0</ele>
        <time>2019-04-22T15:20:22Z</time>
      </trkpt>
      <trkpt lat="51.992554717106" lon="4.120866838625">
        <ele>0</ele>
        <time>2019-04-22T15:20:37Z</time>
      </trkpt>
      <trkpt lat="51.992803575717" lon="4.121161294772">
        <ele>0</ele>
        <time>2019-04-22T15:20:59Z</time>
      </trkpt>
      <trkpt lat="51.99307573601" lon="4.121581227962">
        <ele>0</ele>
        <time>2019-04-22T15:21:11Z</time>
      </trkpt>
      <trkpt lat="51.993454933166" lon="4.122243817157">
        <ele>0</ele>
        <time>2019-04-22T15:21:24Z</time>
      </trkpt>
      <trkpt lat="51.993805045129" lon="4.122923505428">
        <ele>0</ele>
        <time>2019-04-22T15:21:40Z</time>
      </trkpt>
      <trkpt lat="51.994171082702" lon="4.123570755746">
        <ele>0</ele>
        <time>2019-04-22T15:21:57Z</time>
      </trkpt>
      <trkpt lat="51.994556985378" lon="4.124184143188">
        <ele>0</ele>
        <time>2019-04-22T15:22:21Z</time>
      </trkpt>
      <trkpt lat="51.994835180639" lon="4.124982016249">
        <ele>0</ele>
        <time>2019-04-22T15:22:37Z</time>
      </trkpt>
      <trkpt lat="51.995191662846" lon="4.125657094475">
        <ele>0</ele>
        <time>2019-04-22T15:22:52Z</time>
      </trkpt>
      <trkpt lat="51.995518892222" lon="4.1261495311">
        <ele>0</ele>
        <time>2019-04-22T15:23:06Z</time>
      </trkpt>
      <trkpt lat="51.995571195278" lon="4.126250532995">
        <ele>0</ele>
        <time>2019-04-22T15:23:08Z</time>
      </trkpt>
      <trkpt lat="51.995631712596" lon="4.126349439415">
        <ele>0</ele>
        <time>2019-04-22T15:23:10Z</time>
      </trkpt>
      <trkpt lat="51.996006467345" lon="4.12703885069">
        <ele>0</ele>
        <time>2019-04-22T15:23:26Z</time>
      </trkpt>
      <trkpt lat="51.996423634508" lon="4.127659362747">
        <ele>0</ele>
        <time>2019-04-22T15:23:41Z</time>
      </trkpt>
      <trkpt lat="51.996837784187" lon="4.128262943366">
        <ele>0</ele>
        <time>2019-04-22T15:23:56Z</time>
      </trkpt>
      <trkpt lat="51.997150345238" lon="4.128641302332">
        <ele>0</ele>
        <time>2019-04-22T15:24:06Z</time>
      </trkpt>
      <trkpt lat="51.997628281176" lon="4.129107419791">
        <ele>0</ele>
        <time>2019-04-22T15:24:21Z</time>
      </trkpt>
      <trkpt lat="51.998096913205" lon="4.129573118155">
        <ele>0</ele>
        <time>2019-04-22T15:24:35Z</time>
      </trkpt>
      <trkpt lat="51.998400254166" lon="4.129940748289">
        <ele>0</ele>
        <time>2019-04-22T15:24:45Z</time>
      </trkpt>
      <trkpt lat="51.998784229005" lon="4.13040250716">
        <ele>1</ele>
        <time>2019-04-22T15:25:09Z</time>
      </trkpt>
      <trkpt lat="51.998805519031" lon="4.130429496878">
        <ele>0.8</ele>
        <time>2019-04-22T15:25:11Z</time>
      </trkpt>
      <trkpt lat="51.998835693871" lon="4.130462689202">
        <ele>1</ele>
        <time>2019-04-22T15:25:18Z</time>
      </trkpt>
      <trkpt lat="51.999201899082" lon="4.130835348476">
        <ele>1</ele>
        <time>2019-04-22T15:25:32Z</time>
      </trkpt>
      <trkpt lat="51.999329890695" lon="4.131031736393">
        <ele>0.6</ele>
        <time>2019-04-22T15:25:36Z</time>
      </trkpt>
      <trkpt lat="51.999398035542" lon="4.131142712749">
        <ele>0.6</ele>
        <time>2019-04-22T15:25:38Z</time>
      </trkpt>
      <trkpt lat="51.999851915427" lon="4.13163716103">
        <ele>1</ele>
        <time>2019-04-22T15:25:51Z</time>
      </trkpt>
      <trkpt lat="52.000316188868" lon="4.132110151647">
        <ele>1.2</ele>
        <time>2019-04-22T15:26:06Z</time>
      </trkpt>
      <trkpt lat="52.00066889922" lon="4.132558415659">
        <ele>0.2</ele>
        <time>2019-04-22T15:26:27Z</time>
      </trkpt>
      <trkpt lat="52.000653895619" lon="4.132617759511">
        <ele>0.6</ele>
        <time>2019-04-22T15:26:39Z</time>
      </trkpt>
      <trkpt lat="52.000385171905" lon="4.133411357803">
        <ele>3.2</ele>
        <time>2019-04-22T15:27:02Z</time>
      </trkpt>
      <trkpt lat="52.000281320164" lon="4.133671364341">
        <ele>5.6</ele>
        <time>2019-04-22T15:27:13Z</time>
      </trkpt>
      <trkpt lat="52.000292468091" lon="4.133702712647">
        <ele>5.8</ele>
        <time>2019-04-22T15:27:15Z</time>
      </trkpt>
      <trkpt lat="52.00033781417" lon="4.133748226364">
        <ele>5.2</ele>
        <time>2019-04-22T15:27:19Z</time>
      </trkpt>
      <trkpt lat="52.000370838856" lon="4.133805893836">
        <ele>4.2</ele>
        <time>2019-04-22T15:27:27Z</time>
      </trkpt>
      <trkpt lat="52.00036631263" lon="4.133799942687">
        <ele>4.6</ele>
        <time>2019-04-22T15:27:49Z</time>
      </trkpt>
      <trkpt lat="52.000414760012" lon="4.133835901038">
        <ele>4.6</ele>
        <time>2019-04-22T15:27:56Z</time>
      </trkpt>
      <trkpt lat="52.000479719737" lon="4.133873703407">
        <ele>5</ele>
        <time>2019-04-22T15:28:03Z</time>
      </trkpt>
      <trkpt lat="52.000394727271" lon="4.134146031338">
        <ele>0</ele>
        <time>2019-04-22T15:30:22Z</time>
      </trkpt>
      <trkpt lat="52.000407048664" lon="4.134190539227">
        <ele>0</ele>
        <time>2019-04-22T15:30:27Z</time>
      </trkpt>
      <trkpt lat="52.000880374557" lon="4.134620865973">
        <ele>0</ele>
        <time>2019-04-22T15:30:46Z</time>
      </trkpt>
      <trkpt lat="52.001354957735" lon="4.135118834652">
        <ele>0</ele>
        <time>2019-04-22T15:31:02Z</time>
      </trkpt>
      <trkpt lat="52.001793079648" lon="4.135674889898">
        <ele>0</ele>
        <time>2019-04-22T15:31:19Z</time>
      </trkpt>
      <trkpt lat="52.002214102485" lon="4.136252905722">
        <ele>0</ele>
        <time>2019-04-22T15:31:35Z</time>
      </trkpt>
      <trkpt lat="52.002658678461" lon="4.136798567412">
        <ele>0</ele>
        <time>2019-04-22T15:31:53Z</time>
      </trkpt>
      <trkpt lat="52.00311892859" lon="4.137362166368">
        <ele>0</ele>
        <time>2019-04-22T15:32:09Z</time>
      </trkpt>
      <trkpt lat="52.003569204258" lon="4.137887795317">
        <ele>0</ele>
        <time>2019-04-22T15:32:24Z</time>
      </trkpt>
      <trkpt lat="52.003728376539" lon="4.138069179633">
        <ele>0</ele>
        <time>2019-04-22T15:32:30Z</time>
      </trkpt>
      <trkpt lat="52.003733657136" lon="4.138158530687">
        <ele>0</ele>
        <time>2019-04-22T15:32:32Z</time>
      </trkpt>
      <trkpt lat="52.003261672347" lon="4.138567148312">
        <ele>0</ele>
        <time>2019-04-22T15:32:51Z</time>
      </trkpt>
      <trkpt lat="52.003015579763" lon="4.138704024739">
        <ele>0</ele>
        <time>2019-04-22T15:32:59Z</time>
      </trkpt>
      <trkpt lat="52.002978447946" lon="4.138637472453">
        <ele>0</ele>
        <time>2019-04-22T15:33:01Z</time>
      </trkpt>
      <trkpt lat="52.003000911438" lon="4.138445610762">
        <ele>0</ele>
        <time>2019-04-22T15:33:09Z</time>
      </trkpt>
      <trkpt lat="52.003032846477" lon="4.138595562953">
        <ele>0</ele>
        <time>2019-04-22T15:40:16Z</time>
      </trkpt>
      <trkpt lat="52.003074085425" lon="4.13863940029">
        <ele>0</ele>
        <time>2019-04-22T15:40:21Z</time>
      </trkpt>
      <trkpt lat="52.003593930863" lon="4.138314853122">
        <ele>0</ele>
        <time>2019-04-22T15:40:42Z</time>
      </trkpt>
      <trkpt lat="52.004076476846" lon="4.138442090364">
        <ele>0</ele>
        <time>2019-04-22T15:41:02Z</time>
      </trkpt>
      <trkpt lat="52.004362215817" lon="4.138809888136">
        <ele>0</ele>
        <time>2019-04-22T15:41:24Z</time>
      </trkpt>
      <trkpt lat="52.0044508125" lon="4.138986075674">
        <ele>0</ele>
        <time>2019-04-22T15:41:52Z</time>
      </trkpt>
      <trkpt lat="52.004497164407" lon="4.139051957408">
        <ele>0</ele>
        <time>2019-04-22T15:41:57Z</time>
      </trkpt>
      <trkpt lat="52.004542594305" lon="4.13912303592">
        <ele>0</ele>
        <time>2019-04-22T15:42:03Z</time>
      </trkpt>
      <trkpt lat="52.004543097219" lon="4.139117671504">
        <ele>0</ele>
        <time>2019-04-22T15:42:24Z</time>
      </trkpt>
      <trkpt lat="52.004569584023" lon="4.139159161909">
        <ele>0</ele>
        <time>2019-04-22T15:42:29Z</time>
      </trkpt>
      <trkpt lat="52.004860519772" lon="4.139651766172">
        <ele>0</ele>
        <time>2019-04-22T15:42:52Z</time>
      </trkpt>
      <trkpt lat="52.005262767153" lon="4.14024369595">
        <ele>0</ele>
        <time>2019-04-22T15:43:15Z</time>
      </trkpt>
      <trkpt lat="52.005731985915" lon="4.140703946079">
        <ele>0</ele>
        <time>2019-04-22T15:43:35Z</time>
      </trkpt>
      <trkpt lat="52.006210676224" lon="4.14113217735">
        <ele>0</ele>
        <time>2019-04-22T15:43:57Z</time>
      </trkpt>
      <trkpt lat="52.006689869447" lon="4.141563761381">
        <ele>0</ele>
        <time>2019-04-22T15:44:15Z</time>
      </trkpt>
      <trkpt lat="52.007170152317" lon="4.142023508596">
        <ele>0</ele>
        <time>2019-04-22T15:44:33Z</time>
      </trkpt>
      <trkpt lat="52.007586397471" lon="4.142586269362">
        <ele>0</ele>
        <time>2019-04-22T15:44:50Z</time>
      </trkpt>
      <trkpt lat="52.007943298773" lon="4.143295797197">
        <ele>0</ele>
        <time>2019-04-22T15:45:12Z</time>
      </trkpt>
      <trkpt lat="52.008301038265" lon="4.143985543748">
        <ele>0</ele>
        <time>2019-04-22T15:45:30Z</time>
      </trkpt>
      <trkpt lat="52.008653664798" lon="4.144666573123">
        <ele>0</ele>
        <time>2019-04-22T15:45:50Z</time>
      </trkpt>
      <trkpt lat="52.009007883892" lon="4.145360426805">
        <ele>0</ele>
        <time>2019-04-22T15:46:08Z</time>
      </trkpt>
      <trkpt lat="52.009339052761" lon="4.146051933555">
        <ele>1</ele>
        <time>2019-04-22T15:46:27Z</time>
      </trkpt>
      <trkpt lat="52.009613140891" lon="4.14684192763">
        <ele>0</ele>
        <time>2019-04-22T15:46:48Z</time>
      </trkpt>
      <trkpt lat="52.009889156858" lon="4.147514658924">
        <ele>0</ele>
        <time>2019-04-22T15:47:12Z</time>
      </trkpt>
      <trkpt lat="52.009918828784" lon="4.147505857929">
        <ele>0</ele>
        <time>2019-04-22T15:47:14Z</time>
      </trkpt>
      <trkpt lat="52.009930228168" lon="4.147448693371">
        <ele>0</ele>
        <time>2019-04-22T15:47:16Z</time>
      </trkpt>
      <trkpt lat="52.009869291755" lon="4.147290610737">
        <ele>0</ele>
        <time>2019-04-22T15:47:25Z</time>
      </trkpt>
      <trkpt lat="52.009622863895" lon="4.146497180083">
        <ele>0</ele>
        <time>2019-04-22T15:47:52Z</time>
      </trkpt>
      <trkpt lat="52.009328910662" lon="4.145754124648">
        <ele>0</ele>
        <time>2019-04-22T15:48:10Z</time>
      </trkpt>
      <trkpt lat="52.008979469251" lon="4.14505239198">
        <ele>0</ele>
        <time>2019-04-22T15:48:28Z</time>
      </trkpt>
      <trkpt lat="52.008631117487" lon="4.144370524415">
        <ele>0</ele>
        <time>2019-04-22T15:48:44Z</time>
      </trkpt>
      <trkpt lat="52.008285699388" lon="4.143673988525">
        <ele>0</ele>
        <time>2019-04-22T15:49:01Z</time>
      </trkpt>
      <trkpt lat="52.007931647932" lon="4.142959347731">
        <ele>0</ele>
        <time>2019-04-22T15:49:16Z</time>
      </trkpt>
      <trkpt lat="52.007551361129" lon="4.142264488221">
        <ele>0</ele>
        <time>2019-04-22T15:49:31Z</time>
      </trkpt>
      <trkpt lat="52.007078789607" lon="4.141791246147">
        <ele>0</ele>
        <time>2019-04-22T15:49:48Z</time>
      </trkpt>
      <trkpt lat="52.006592471769" lon="4.141349017103">
        <ele>0</ele>
        <time>2019-04-22T15:50:03Z</time>
      </trkpt>
      <trkpt lat="52.006109674329" lon="4.140900920729">
        <ele>0</ele>
        <time>2019-04-22T15:50:18Z</time>
      </trkpt>
      <trkpt lat="52.005622266844" lon="4.14045491983">
        <ele>0</ele>
        <time>2019-04-22T15:50:35Z</time>
      </trkpt>
      <trkpt lat="52.00517249409" lon="4.139955777685">
        <ele>0</ele>
        <time>2019-04-22T15:50:50Z</time>
      </trkpt>
      <trkpt lat="52.004772928917" lon="4.139305845159">
        <ele>0</ele>
        <time>2019-04-22T15:51:06Z</time>
      </trkpt>
      <trkpt lat="52.004372190278" lon="4.13865364952">
        <ele>0</ele>
        <time>2019-04-22T15:51:25Z</time>
      </trkpt>
      <trkpt lat="52.003968098879" lon="4.138044536847">
        <ele>0</ele>
        <time>2019-04-22T15:51:40Z</time>
      </trkpt>
      <trkpt lat="52.003515308641" lon="4.13753801863">
        <ele>0</ele>
        <time>2019-04-22T15:51:59Z</time>
      </trkpt>
      <trkpt lat="52.003070900303" lon="4.137029907852">
        <ele>0</ele>
        <time>2019-04-22T15:52:17Z</time>
      </trkpt>
      <trkpt lat="52.002651050932" lon="4.13646932638">
        <ele>0</ele>
        <time>2019-04-22T15:52:34Z</time>
      </trkpt>
      <trkpt lat="52.002215611227" lon="4.135892484022">
        <ele>0</ele>
        <time>2019-04-22T15:52:52Z</time>
      </trkpt>
      <trkpt lat="52.001820488461" lon="4.135255794898">
        <ele>0</ele>
        <time>2019-04-22T15:53:15Z</time>
      </trkpt>
      <trkpt lat="52.001444895522" lon="4.134715413805">
        <ele>0</ele>
        <time>2019-04-22T15:53:36Z</time>
      </trkpt>
      <trkpt lat="52.000970144706" lon="4.134275531693">
        <ele>0</ele>
        <time>2019-04-22T15:54:02Z</time>
      </trkpt>
      <trkpt lat="52.000942316798" lon="4.134255834228">
        <ele>0</ele>
        <time>2019-04-22T15:54:04Z</time>
      </trkpt>
      <trkpt lat="52.000475612606" lon="4.133825172206">
        <ele>0</ele>
        <time>2019-04-22T15:54:30Z</time>
      </trkpt>
      <trkpt lat="52.00030680114" lon="4.133698018783">
        <ele>0</ele>
        <time>2019-04-22T15:54:41Z</time>
      </trkpt>
      <trkpt lat="52.000569489886" lon="4.132891428546">
        <ele>0</ele>
        <time>2019-04-22T15:55:00Z</time>
      </trkpt>
      <trkpt lat="52.000838716514" lon="4.13212163485">
        <ele>0.4</ele>
        <time>2019-04-22T15:55:17Z</time>
      </trkpt>
      <trkpt lat="52.001138453258" lon="4.131391655179">
        <ele>0</ele>
        <time>2019-04-22T15:55:33Z</time>
      </trkpt>
      <trkpt lat="52.001423940772" lon="4.130613228126">
        <ele>0</ele>
        <time>2019-04-22T15:55:56Z</time>
      </trkpt>
      <trkpt lat="52.001710182657" lon="4.129864137723">
        <ele>0</ele>
        <time>2019-04-22T15:56:10Z</time>
      </trkpt>
      <trkpt lat="52.001987958823" lon="4.129095685131">
        <ele>0</ele>
        <time>2019-04-22T15:56:22Z</time>
      </trkpt>
      <trkpt lat="52.002212426105" lon="4.12856687106">
        <ele>1</ele>
        <time>2019-04-22T15:56:43Z</time>
      </trkpt>
      <trkpt lat="52.002214605399" lon="4.128561339006">
        <ele>1.2</ele>
        <time>2019-04-22T15:56:45Z</time>
      </trkpt>
    </trkseg>
  </trk>
</gpx>